createdAt,value
2023-05-12T00:00:45.223Z,11.77
2023-05-12T00:03:16.720Z,11.75
2023-05-12T00:05:47.460Z,11.73
2023-05-12T00:08:18.094Z,11.72
2023-05-12T00:10:48.898Z,11.73
2023-05-12T00:13:23.908Z,11.75
2023-05-12T00:15:56.937Z,11.76
2023-05-12T00:18:28.834Z,11.78
2023-05-12T00:20:59.662Z,11.80
2023-05-12T00:23:30.434Z,11.80
2023-05-12T00:26:01.272Z,11.80
2023-05-12T00:28:32.004Z,11.80
2023-05-12T00:31:04.994Z,11.78
2023-05-12T00:33:35.802Z,11.74
2023-05-12T00:36:07.090Z,11.66
2023-05-12T00:38:38.215Z,11.57
2023-05-12T00:41:08.801Z,11.53
2023-05-12T00:43:39.507Z,11.47
2023-05-12T00:46:10.243Z,11.43
2023-05-12T00:48:41.005Z,11.40
2023-05-12T00:51:14.544Z,11.35
2023-05-12T00:53:49.863Z,11.26
2023-05-12T00:56:21.969Z,11.14
2023-05-12T00:58:52.874Z,11.06
2023-05-12T01:01:24.118Z,11.04
2023-05-12T01:03:55.152Z,10.98
2023-05-12T01:06:26.950Z,10.90
2023-05-12T01:08:57.612Z,10.83
2023-05-12T01:11:28.100Z,10.74
2023-05-12T01:13:58.926Z,10.73
2023-05-12T01:16:30.686Z,10.74
2023-05-12T01:19:01.336Z,10.73
2023-05-12T01:21:32.205Z,10.73
2023-05-12T01:24:03.689Z,10.71
2023-05-12T01:26:34.591Z,10.68
2023-05-12T01:29:05.805Z,10.67
2023-05-12T01:31:36.488Z,10.67
2023-05-12T01:34:07.271Z,10.70
2023-05-12T01:36:38.020Z,10.70
2023-05-12T01:39:08.860Z,10.66
2023-05-12T01:41:39.686Z,10.64
2023-05-12T01:44:10.722Z,10.66
2023-05-12T01:46:41.599Z,10.62
2023-05-12T01:49:12.386Z,10.60
2023-05-12T01:51:43.128Z,10.58
2023-05-12T01:54:13.839Z,10.54
2023-05-12T01:56:44.432Z,10.49
2023-05-12T01:59:15.214Z,10.45
2023-05-12T02:01:46.001Z,10.36
2023-05-12T02:04:16.810Z,10.34
2023-05-12T02:06:47.677Z,10.37
2023-05-12T02:09:18.289Z,10.38
2023-05-12T02:11:48.932Z,10.36
2023-05-12T02:14:19.787Z,10.32
2023-05-12T02:16:52.992Z,10.31
2023-05-12T02:19:23.851Z,10.33
2023-05-12T02:21:54.945Z,10.31
2023-05-12T02:24:25.798Z,10.20
2023-05-12T02:26:56.539Z,10.08
2023-05-12T02:29:27.253Z,10.05
2023-05-12T02:31:58.094Z,10.05
2023-05-12T02:34:28.820Z,10.06
2023-05-12T02:36:59.935Z,10.07
2023-05-12T02:39:30.613Z,10.12
2023-05-12T02:42:01.476Z,10.14
2023-05-12T02:44:32.192Z,10.09
2023-05-12T02:47:02.922Z,10.06
2023-05-12T02:49:33.736Z,10.04
2023-05-12T02:52:04.552Z,9.95
2023-05-12T02:54:35.385Z,9.87
2023-05-12T02:57:07.619Z,9.83
2023-05-12T02:59:38.198Z,9.79
2023-05-12T03:02:08.995Z,9.80
2023-05-12T03:04:39.848Z,9.78
2023-05-12T03:07:10.526Z,9.74
2023-05-12T03:09:41.266Z,9.65
2023-05-12T03:12:12.224Z,9.60
2023-05-12T03:14:43.007Z,9.56
2023-05-12T03:17:13.843Z,9.56
2023-05-12T03:19:44.632Z,9.56
2023-05-12T03:22:15.488Z,9.57
2023-05-12T03:24:46.715Z,9.58
2023-05-12T03:27:17.350Z,9.60
2023-05-12T03:29:48.105Z,9.61
2023-05-12T03:32:18.721Z,9.64
2023-05-12T03:34:49.575Z,9.69
2023-05-12T03:37:20.491Z,9.73
2023-05-12T03:39:51.072Z,9.79
2023-05-12T03:42:22.016Z,9.84
2023-05-12T03:44:53.100Z,9.88
2023-05-12T03:47:24.078Z,9.94
2023-05-12T03:49:54.830Z,9.98
2023-05-12T03:52:25.522Z,10.01
2023-05-12T03:54:56.620Z,10.00
2023-05-12T03:57:27.293Z,10.00
2023-05-12T03:59:57.908Z,10.02
2023-05-12T04:02:28.621Z,10.04
2023-05-12T04:04:59.357Z,10.02
2023-05-12T04:07:30.085Z,10.02
2023-05-12T04:10:00.803Z,10.05
2023-05-12T04:12:31.518Z,10.08
2023-05-12T04:15:03.046Z,10.09
2023-05-12T04:17:33.683Z,10.08
2023-05-12T04:20:04.497Z,10.08
2023-05-12T04:22:35.156Z,10.08
2023-05-12T04:25:06.146Z,10.11
2023-05-12T04:27:36.731Z,10.16
2023-05-12T04:30:08.574Z,10.21
2023-05-12T04:32:39.306Z,10.27
2023-05-12T04:35:10.514Z,10.34
2023-05-12T04:37:41.206Z,10.41
2023-05-12T04:40:12.319Z,10.48
2023-05-12T04:42:43.139Z,10.52
2023-05-12T04:45:14.158Z,10.56
2023-05-12T04:47:44.716Z,10.57
2023-05-12T04:50:15.790Z,10.56
2023-05-12T04:52:46.804Z,10.59
2023-05-12T04:55:17.530Z,10.65
2023-05-12T04:57:48.214Z,10.71
2023-05-12T05:00:18.957Z,10.78
2023-05-12T05:02:49.722Z,10.84
2023-05-12T05:05:20.748Z,10.90
2023-05-12T05:07:51.530Z,10.97
2023-05-12T05:10:22.235Z,11.05
2023-05-12T05:12:52.850Z,11.13
2023-05-12T05:15:23.836Z,11.20
2023-05-12T05:17:54.607Z,11.28
2023-05-12T05:20:28.912Z,11.29
2023-05-12T05:23:00.063Z,11.26
2023-05-12T05:25:30.874Z,11.26
2023-05-12T05:28:01.547Z,11.29
2023-05-12T05:30:32.185Z,11.34
2023-05-12T05:33:03.058Z,11.39
2023-05-12T05:35:33.825Z,11.47
2023-05-12T05:38:04.692Z,11.54
2023-05-12T05:40:45.442Z,11.64
2023-05-12T05:43:19.942Z,11.72
2023-05-12T05:45:50.769Z,11.79
2023-05-12T05:48:21.909Z,11.81
2023-05-12T05:50:52.860Z,11.86
2023-05-12T05:53:23.603Z,11.96
2023-05-12T05:55:54.400Z,12.09
2023-05-12T05:58:25.177Z,12.16
2023-05-12T06:00:55.831Z,12.22
2023-05-12T06:03:26.931Z,12.21
2023-05-12T06:05:57.744Z,12.22
2023-05-12T06:08:28.379Z,12.27
2023-05-12T06:10:59.154Z,12.34
2023-05-12T06:13:29.890Z,12.40
2023-05-12T06:16:00.730Z,12.46
2023-05-12T06:18:33.912Z,12.51
2023-05-12T06:21:04.785Z,12.51
2023-05-12T06:23:35.661Z,12.51
2023-05-12T06:26:07.858Z,12.53
2023-05-12T06:28:38.554Z,12.60
2023-05-12T06:31:09.916Z,12.69
2023-05-12T06:33:40.532Z,12.76
2023-05-12T06:36:12.557Z,12.81
2023-05-12T06:38:43.289Z,12.86
2023-05-12T06:41:13.938Z,12.87
2023-05-12T06:43:44.713Z,12.88
2023-05-12T06:46:15.817Z,12.92
2023-05-12T06:48:46.524Z,12.98
2023-05-12T06:51:17.188Z,13.08
2023-05-12T06:53:47.943Z,13.18
2023-05-12T06:56:18.714Z,13.23
2023-05-12T06:58:49.366Z,13.23
2023-05-12T07:01:20.157Z,13.20
2023-05-12T07:03:51.885Z,13.20
2023-05-12T07:06:22.654Z,13.20
2023-05-12T07:08:53.371Z,13.21
2023-05-12T07:11:24.148Z,13.22
2023-05-12T07:13:54.849Z,13.19
2023-05-12T07:16:25.531Z,13.16
2023-05-12T07:18:56.534Z,13.16
2023-05-12T07:21:27.456Z,13.18
2023-05-12T07:23:58.107Z,13.23
2023-05-12T07:26:29.584Z,13.32
2023-05-12T07:29:01.142Z,13.40
2023-05-12T07:31:33.867Z,13.49
2023-05-12T07:34:04.804Z,13.57
2023-05-12T07:36:35.668Z,13.65
2023-05-12T07:39:06.344Z,13.74
2023-05-12T07:41:39.192Z,13.80
2023-05-12T07:44:09.757Z,13.85
2023-05-12T07:46:41.732Z,13.86
2023-05-12T07:49:13.451Z,13.86
2023-05-12T07:51:44.151Z,13.92
2023-05-12T07:54:14.908Z,14.01
2023-05-12T07:56:45.776Z,14.09
2023-05-12T07:59:16.551Z,14.16
2023-05-12T08:01:47.261Z,14.17
2023-05-12T08:04:18.089Z,14.14
2023-05-12T08:06:48.752Z,14.12
2023-05-12T08:09:19.405Z,14.10
2023-05-12T08:11:51.828Z,14.16
2023-05-12T08:14:23.114Z,14.27
2023-05-12T08:16:54.010Z,14.32
2023-05-12T08:19:24.583Z,14.38
2023-05-12T08:21:55.431Z,14.42
2023-05-12T08:24:26.181Z,14.38
2023-05-12T08:26:56.968Z,14.40
2023-05-12T08:29:27.695Z,14.44
2023-05-12T08:31:58.755Z,14.50
2023-05-12T08:34:29.449Z,14.58
2023-05-12T08:37:00.075Z,14.64
2023-05-12T08:39:31.566Z,14.71
2023-05-12T08:42:09.459Z,14.70
2023-05-12T08:44:40.125Z,14.65
2023-05-12T08:47:11.014Z,14.67
2023-05-12T08:49:41.742Z,14.72
2023-05-12T08:52:12.758Z,14.78
2023-05-12T08:54:55.089Z,14.83
2023-05-12T08:57:29.457Z,14.88
2023-05-12T09:00:00.593Z,14.93
2023-05-12T09:02:44.668Z,14.93
2023-05-12T09:05:19.837Z,15.00
2023-05-12T09:07:51.006Z,15.08
2023-05-12T09:10:34.481Z,15.18
2023-05-12T09:13:15.947Z,15.27
2023-05-12T09:15:46.975Z,15.33
2023-05-12T09:18:17.610Z,15.39
2023-05-12T09:20:48.221Z,15.42
2023-05-12T09:23:22.319Z,15.40
2023-05-12T09:26:02.519Z,15.43
2023-05-12T09:28:44.206Z,15.50
2023-05-12T09:31:18.721Z,15.55
2023-05-12T09:33:49.655Z,15.50
2023-05-12T09:36:21.383Z,15.43
2023-05-12T09:39:04.653Z,15.44
2023-05-12T09:41:37.836Z,15.55
2023-05-12T09:44:08.920Z,15.65
2023-05-12T09:46:41.062Z,15.71
2023-05-12T09:49:11.894Z,15.71
2023-05-12T09:51:42.651Z,15.72
2023-05-12T09:54:14.095Z,15.68
2023-05-12T09:56:44.851Z,15.70
2023-05-12T09:59:15.564Z,15.71
2023-05-12T10:01:46.326Z,15.72
2023-05-12T10:04:17.348Z,15.69
2023-05-12T10:06:48.001Z,15.67
2023-05-12T10:09:20.790Z,15.69
2023-05-12T10:11:53.815Z,15.70
2023-05-12T10:14:25.058Z,15.73
2023-05-12T10:16:56.073Z,15.75
2023-05-12T10:19:26.945Z,15.76
2023-05-12T10:21:57.716Z,15.77
2023-05-12T10:24:29.264Z,15.77
2023-05-12T10:26:59.940Z,15.82
2023-05-12T10:29:33.016Z,15.85
2023-05-12T10:32:04.154Z,15.85
2023-05-12T10:34:35.836Z,15.85
2023-05-12T10:37:08.682Z,15.88
2023-05-12T10:39:39.785Z,15.91
2023-05-12T10:42:10.885Z,15.91
2023-05-12T10:44:50.646Z,15.94
2023-05-12T10:47:22.870Z,15.98
2023-05-12T10:49:56.696Z,16.02
2023-05-12T10:52:27.283Z,16.04
2023-05-12T10:55:02.780Z,16.02
2023-05-12T10:57:34.536Z,16.04
2023-05-12T11:00:06.086Z,16.03
2023-05-12T11:02:38.508Z,16.05
2023-05-12T11:05:13.505Z,16.08
2023-05-12T11:07:48.258Z,16.12
2023-05-12T11:10:19.711Z,16.17
2023-05-12T11:12:50.711Z,16.23
2023-05-12T11:15:21.826Z,16.35
2023-05-12T11:17:52.887Z,16.45
2023-05-12T11:20:29.479Z,16.51
2023-05-12T11:23:01.639Z,16.54
2023-05-12T11:25:32.227Z,16.58
2023-05-12T11:28:03.597Z,16.65
2023-05-12T11:30:34.548Z,16.69
2023-05-12T11:33:05.333Z,16.70
2023-05-12T11:35:36.152Z,16.73
2023-05-12T11:38:15.688Z,16.74
2023-05-12T11:40:46.735Z,16.69
2023-05-12T11:43:21.166Z,16.64
2023-05-12T11:45:52.283Z,16.61
2023-05-12T11:48:23.574Z,16.57
2023-05-12T11:50:57.157Z,16.56
2023-05-12T11:53:28.107Z,16.59
2023-05-12T11:55:59.370Z,16.60
2023-05-12T11:58:30.909Z,16.63
2023-05-12T12:01:09.732Z,16.67
2023-05-12T12:03:48.825Z,16.73
2023-05-12T12:06:19.811Z,16.79
2023-05-12T12:08:53.882Z,16.81
2023-05-12T12:11:26.891Z,16.73
2023-05-12T12:13:58.605Z,16.75
2023-05-12T12:16:29.843Z,16.82
2023-05-12T12:19:00.767Z,16.91
2023-05-12T12:21:31.490Z,16.97
2023-05-12T12:24:02.245Z,17.06
2023-05-12T12:26:34.455Z,17.13
2023-05-12T12:29:05.326Z,17.20
2023-05-12T12:31:36.683Z,17.22
2023-05-12T12:34:07.502Z,17.26
2023-05-12T12:36:38.370Z,17.33
2023-05-12T12:39:10.625Z,17.33
2023-05-12T12:41:41.467Z,17.36
2023-05-12T12:44:12.132Z,17.37
2023-05-12T12:46:42.767Z,17.32
2023-05-12T12:49:13.536Z,17.32
2023-05-12T12:51:46.776Z,17.39
2023-05-12T12:54:18.179Z,17.40
2023-05-12T12:56:48.906Z,17.35
2023-05-12T12:59:19.649Z,17.33
2023-05-12T13:01:50.344Z,17.36
2023-05-12T13:04:23.230Z,17.37
2023-05-12T13:06:54.011Z,17.40
2023-05-12T13:09:24.726Z,17.45
2023-05-12T13:11:55.441Z,17.47
2023-05-12T13:14:26.300Z,17.48
2023-05-12T13:16:57.050Z,17.49
2023-05-12T13:19:27.830Z,17.55
2023-05-12T13:21:59.082Z,17.55
2023-05-12T13:24:29.893Z,17.54
2023-05-12T13:27:00.673Z,17.54
2023-05-12T13:29:31.544Z,17.56
2023-05-12T13:32:02.852Z,17.56
2023-05-12T13:34:33.703Z,17.52
2023-05-12T13:37:04.531Z,17.50
2023-05-12T13:39:38.090Z,17.54
2023-05-12T13:42:09.166Z,17.53
2023-05-12T13:44:40.001Z,17.52
2023-05-12T13:47:11.953Z,17.62
2023-05-12T13:49:42.795Z,17.72
2023-05-12T13:52:13.575Z,17.78
2023-05-12T13:54:44.350Z,17.83
2023-05-12T13:57:15.186Z,17.79
2023-05-12T13:59:45.912Z,17.75
2023-05-12T14:02:16.825Z,17.72
2023-05-12T14:04:47.553Z,17.72
2023-05-12T14:07:18.795Z,17.76
2023-05-12T14:09:50.059Z,17.79
2023-05-12T14:12:20.855Z,17.78
2023-05-12T14:14:52.331Z,17.81
2023-05-12T14:17:23.105Z,17.86
2023-05-12T14:19:54.025Z,17.94
2023-05-12T14:22:26.426Z,18.07
2023-05-12T14:24:57.924Z,18.15
2023-05-12T14:27:29.211Z,18.16
2023-05-12T14:30:00.010Z,18.11
2023-05-12T14:32:30.993Z,18.08
2023-05-12T14:35:02.183Z,18.00
2023-05-12T14:37:34.103Z,17.98
2023-05-12T14:40:05.398Z,17.95
2023-05-12T14:42:36.407Z,17.92
2023-05-12T14:45:08.135Z,17.90
2023-05-12T14:47:39.884Z,17.89
2023-05-12T14:50:11.838Z,17.89
2023-05-12T14:52:42.560Z,17.92
2023-05-12T14:55:13.825Z,17.89
2023-05-12T14:57:45.305Z,17.88
2023-05-12T15:00:16.666Z,17.86
2023-05-12T15:02:47.521Z,17.81
2023-05-12T15:05:18.385Z,17.74
2023-05-12T15:07:49.009Z,17.66
2023-05-12T15:10:19.715Z,17.57
2023-05-12T15:12:51.703Z,17.52
2023-05-12T15:15:24.025Z,17.50
2023-05-12T15:17:54.830Z,17.48
2023-05-12T15:20:26.308Z,17.43
2023-05-12T15:22:58.981Z,17.40
2023-05-12T15:25:29.863Z,17.37
2023-05-12T15:28:00.704Z,17.34
2023-05-12T15:30:32.226Z,17.31
2023-05-12T15:33:06.219Z,17.30
2023-05-12T15:35:37.413Z,17.27
2023-05-12T15:38:08.493Z,17.24
2023-05-12T15:40:40.356Z,17.17
2023-05-12T15:43:11.137Z,17.08
2023-05-12T15:45:41.954Z,17.04
2023-05-12T15:48:12.953Z,17.05
2023-05-12T15:50:44.780Z,17.02
2023-05-12T15:53:15.797Z,16.98
2023-05-12T15:55:46.749Z,16.95
2023-05-12T15:58:19.715Z,16.97
2023-05-12T16:00:50.406Z,16.98
2023-05-12T16:03:21.168Z,16.97
2023-05-12T16:05:52.118Z,16.97
2023-05-12T16:08:24.148Z,16.97
2023-05-12T16:10:54.746Z,16.97
2023-05-12T16:13:25.374Z,16.98
2023-05-12T16:15:56.072Z,16.96
2023-05-12T16:18:26.759Z,16.93
2023-05-12T16:20:57.909Z,16.92
2023-05-12T16:23:28.630Z,16.91
2023-05-12T16:25:59.477Z,16.91
2023-05-12T16:28:30.240Z,16.89
2023-05-12T16:31:01.434Z,16.89
2023-05-12T16:33:32.184Z,16.87
2023-05-12T16:36:02.867Z,16.86
2023-05-12T16:38:34.909Z,16.87
2023-05-12T16:41:08.802Z,16.84
2023-05-12T16:43:41.666Z,16.81
2023-05-12T16:46:12.335Z,16.78
2023-05-12T16:48:43.369Z,16.75
2023-05-12T16:51:14.238Z,16.73
2023-05-12T16:53:47.323Z,16.70
2023-05-12T16:56:18.182Z,16.68
2023-05-12T16:58:48.827Z,16.66
2023-05-12T17:01:19.616Z,16.65
2023-05-12T17:03:50.830Z,16.64
2023-05-12T17:06:22.196Z,16.64
2023-05-12T17:08:54.934Z,16.65
2023-05-12T17:16:45.952Z,16.70
2023-05-12T17:19:16.569Z,16.68
2023-05-12T17:21:55.669Z,16.69
2023-05-12T17:24:27.991Z,16.68
2023-05-12T17:26:59.667Z,16.65
2023-05-12T17:29:31.808Z,16.65
2023-05-12T17:32:06.014Z,16.64
2023-05-12T17:34:37.348Z,16.65
2023-05-12T17:37:08.558Z,16.65
2023-05-12T17:39:42.099Z,16.64
2023-05-12T17:42:14.575Z,16.63
2023-05-12T17:44:45.380Z,16.61
2023-05-12T17:47:16.797Z,16.59
2023-05-12T17:49:50.264Z,16.56
2023-05-12T17:52:21.051Z,16.55
2023-05-12T17:54:52.568Z,16.54
2023-05-12T17:57:23.264Z,16.52
2023-05-12T17:59:54.324Z,16.50
2023-05-12T18:02:25.359Z,16.47
2023-05-12T18:04:56.216Z,16.44
2023-05-12T18:07:27.520Z,16.41
2023-05-12T18:09:58.131Z,16.38
2023-05-12T18:12:30.353Z,16.35
2023-05-12T18:15:01.109Z,16.34
2023-05-12T18:17:34.756Z,16.34
2023-05-12T18:20:06.867Z,16.32
2023-05-12T18:22:37.632Z,16.28
2023-05-12T18:25:10.133Z,16.27
2023-05-12T18:27:40.944Z,16.25
2023-05-12T18:30:14.120Z,16.24
2023-05-12T18:32:49.968Z,16.25
2023-05-12T18:35:29.168Z,16.24
2023-05-12T18:37:59.964Z,16.22
2023-05-12T18:40:32.316Z,16.19
2023-05-12T18:43:03.271Z,16.18
2023-05-12T18:45:33.978Z,16.17
2023-05-12T18:48:08.735Z,16.15
2023-05-12T18:50:39.990Z,16.13
2023-05-12T18:53:10.985Z,16.13
2023-05-12T18:55:41.640Z,16.13
2023-05-12T18:58:12.450Z,16.10
2023-05-12T19:00:43.257Z,16.08
2023-05-12T19:03:13.962Z,16.06
2023-05-12T19:05:46.459Z,16.04
2023-05-12T19:08:19.204Z,16.02
2023-05-12T19:10:50.349Z,16.01
2023-05-12T19:13:21.066Z,15.99
2023-05-12T19:15:51.721Z,15.98
2023-05-12T19:18:23.367Z,15.94
2023-05-12T19:20:54.100Z,15.92
2023-05-12T19:23:25.670Z,15.91
2023-05-12T19:25:56.438Z,15.90
2023-05-12T19:28:27.273Z,15.90
2023-05-12T19:30:58.110Z,15.88
2023-05-12T19:33:29.485Z,15.86
2023-05-12T19:36:00.229Z,15.83
2023-05-12T19:38:33.259Z,15.82
2023-05-12T19:41:04.071Z,15.81
2023-05-12T19:43:34.880Z,15.77
2023-05-12T19:46:05.721Z,15.75
2023-05-12T19:48:36.499Z,15.73
2023-05-12T19:51:07.178Z,15.71
2023-05-12T19:53:37.895Z,15.69
2023-05-12T19:56:08.556Z,15.68
2023-05-12T19:58:39.646Z,15.69
2023-05-12T20:01:10.391Z,15.70
2023-05-12T20:03:41.360Z,15.68
2023-05-12T20:06:12.048Z,15.66
2023-05-12T20:08:42.842Z,15.62
2023-05-12T20:11:13.667Z,15.62
2023-05-12T20:13:46.838Z,15.59
2023-05-12T20:16:17.599Z,15.57
2023-05-12T20:18:48.242Z,15.54
2023-05-12T20:21:19.100Z,15.53
2023-05-12T20:23:49.931Z,15.51
2023-05-12T20:26:20.815Z,15.49
2023-05-12T20:28:51.648Z,15.47
2023-05-12T20:31:23.053Z,15.46
2023-05-12T20:33:55.149Z,15.45
2023-05-12T20:36:25.798Z,15.43
2023-05-12T20:38:56.585Z,15.43
2023-05-12T20:41:28.041Z,15.43
2023-05-12T20:43:58.669Z,15.42
2023-05-12T20:46:30.474Z,15.40
2023-05-12T20:49:01.121Z,15.38
2023-05-12T20:51:32.650Z,15.38
2023-05-12T20:54:03.333Z,15.37
2023-05-12T20:56:34.041Z,15.35
2023-05-12T20:59:04.814Z,15.33
2023-05-12T21:01:35.370Z,15.30
2023-05-12T21:04:06.342Z,15.29
2023-05-12T21:06:37.342Z,15.28
2023-05-12T21:09:08.170Z,15.26
2023-05-12T21:11:38.874Z,15.26
2023-05-12T21:14:09.621Z,15.25
2023-05-12T21:16:40.452Z,15.22
2023-05-12T21:19:11.326Z,15.20
2023-05-12T21:21:42.068Z,15.17
2023-05-12T21:24:12.798Z,15.13
2023-05-12T21:26:43.881Z,15.11
2023-05-12T21:29:14.975Z,15.11
2023-05-12T21:31:47.509Z,15.11
2023-05-12T21:34:18.316Z,15.10
2023-05-12T21:36:49.062Z,15.10
2023-05-12T21:39:19.824Z,15.09
2023-05-12T21:41:50.559Z,15.09
2023-05-12T21:44:21.317Z,15.09
2023-05-12T21:46:52.038Z,15.11
2023-05-12T21:49:22.788Z,15.11
2023-05-12T21:51:53.888Z,15.10
2023-05-12T21:54:24.670Z,15.11
2023-05-12T21:56:55.389Z,15.14
2023-05-12T21:59:26.244Z,15.16
2023-05-12T22:01:57.050Z,15.17
2023-05-12T22:04:27.932Z,15.18
2023-05-12T22:06:58.701Z,15.17
2023-05-12T22:09:31.209Z,15.16
2023-05-12T22:12:02.106Z,15.15
2023-05-12T22:14:32.816Z,15.14
2023-05-12T22:17:03.634Z,15.16
2023-05-12T22:19:34.355Z,15.18
2023-05-12T22:22:05.174Z,15.18
2023-05-12T22:24:35.857Z,15.17
2023-05-12T22:27:06.978Z,15.16
2023-05-12T22:29:37.848Z,15.15
2023-05-12T22:32:08.722Z,15.14
2023-05-12T22:34:39.423Z,15.14
2023-05-12T22:37:10.138Z,15.12
2023-05-12T22:39:40.907Z,15.10
2023-05-12T22:42:11.655Z,15.07
2023-05-12T22:44:42.354Z,15.05
2023-05-12T22:47:13.060Z,14.98
2023-05-12T22:49:43.840Z,14.94
2023-05-12T22:52:14.474Z,14.89
2023-05-12T22:54:45.122Z,14.86
2023-05-12T22:57:15.877Z,14.83
2023-05-12T22:59:46.437Z,14.80
2023-05-12T23:02:17.599Z,14.78
2023-05-12T23:04:48.365Z,14.75
2023-05-12T23:07:19.056Z,14.69
2023-05-12T23:09:49.693Z,14.65
2023-05-12T23:12:20.660Z,14.62
2023-05-12T23:14:51.685Z,14.59
2023-05-12T23:17:22.405Z,14.55
2023-05-12T23:19:53.600Z,14.51
2023-05-12T23:22:24.087Z,14.46
2023-05-12T23:24:55.053Z,14.39
2023-05-12T23:27:25.616Z,14.33
2023-05-12T23:29:56.412Z,14.28
2023-05-12T23:32:27.335Z,14.26
2023-05-12T23:34:58.420Z,14.22
2023-05-12T23:37:29.220Z,14.21
2023-05-12T23:40:00.046Z,14.18
2023-05-12T23:42:30.679Z,14.13
2023-05-12T23:45:01.348Z,14.10
2023-05-12T23:47:32.155Z,14.09
2023-05-12T23:50:03.530Z,14.07
2023-05-12T23:52:34.282Z,14.05
2023-05-12T23:55:05.204Z,14.02
2023-05-12T23:57:35.895Z,13.96
